Terminal Aerodrome Forecast
Issued by NWS

Home | Current Version | Previous Version | Text Only | Print | Product List | Glossary On
Versions: 1 2 3 4 5 6 7 8 9 10 11 12 13 14 15 16 17 18 19
948
FTUS41 KBTV 051736
TAFRUT
TAF
KRUT 051736Z 0518/0618 14007KT P6SM VCSH OVC022
     FM052000 31007KT P6SM VCSH BKN025
     FM052200 30005KT P6SM BKN025
     FM061200 00000KT P6SM BKN070
     FM061400 00000KT P6SM SCT050=

USA.gov is the U.S. government's official web portal to all federal, state and local government web resources and services.